sensor_id;sensor_type;location;lat;lon;timestamp;P1;durP1;ratioP1;P2;durP2;ratioP2
30707;SDS011;17458;48.958;8.284;2023-12-20T00:00:36;12.85;;;5.22;;
30707;SDS011;17458;48.958;8.284;2023-12-20T00:03:21;6.00;;;4.63;;
30707;SDS011;17458;48.958;8.284;2023-12-20T00:06:05;6.22;;;5.40;;
30707;SDS011;17458;48.958;8.284;2023-12-20T00:08:49;5.53;;;3.95;;
30707;SDS011;17458;48.958;8.284;2023-12-20T00:11:33;7.07;;;4.30;;
30707;SDS011;17458;48.958;8.284;2023-12-20T00:14:17;4.90;;;4.35;;
30707;SDS011;17458;48.958;8.284;2023-12-20T00:17:01;7.60;;;4.82;;
30707;SDS011;17458;48.958;8.284;2023-12-20T00:19:45;8.63;;;6.03;;
30707;SDS011;17458;48.958;8.284;2023-12-20T00:22:29;8.77;;;5.18;;
30707;SDS011;17458;48.958;8.284;2023-12-20T00:25:13;6.05;;;4.90;;
30707;SDS011;17458;48.958;8.284;2023-12-20T00:27:57;8.60;;;5.10;;
30707;SDS011;17458;48.958;8.284;2023-12-20T00:30:41;5.15;;;4.28;;
30707;SDS011;17458;48.958;8.284;2023-12-20T00:33:25;6.53;;;4.90;;
30707;SDS011;17458;48.958;8.284;2023-12-20T00:36:09;8.25;;;5.43;;
30707;SDS011;17458;48.958;8.284;2023-12-20T00:38:53;4.97;;;4.38;;
30707;SDS011;17458;48.958;8.284;2023-12-20T00:41:37;5.13;;;4.18;;
30707;SDS011;17458;48.958;8.284;2023-12-20T00:44:21;7.32;;;4.72;;
30707;SDS011;17458;48.958;8.284;2023-12-20T00:47:05;9.18;;;5.72;;
30707;SDS011;17458;48.958;8.284;2023-12-20T00:49:49;8.05;;;5.20;;
30707;SDS011;17458;48.958;8.284;2023-12-20T00:52:33;6.40;;;5.18;;
30707;SDS011;17458;48.958;8.284;2023-12-20T00:55:17;7.03;;;5.55;;
30707;SDS011;17458;48.958;8.284;2023-12-20T00:58:01;5.40;;;4.90;;
30707;SDS011;17458;48.958;8.284;2023-12-20T01:00:45;6.97;;;4.88;;
30707;SDS011;17458;48.958;8.284;2023-12-20T01:03:29;10.32;;;5.25;;
30707;SDS011;17458;48.958;8.284;2023-12-20T01:06:13;7.03;;;4.82;;
30707;SDS011;17458;48.958;8.284;2023-12-20T01:08:58;6.10;;;5.10;;
30707;SDS011;17458;48.958;8.284;2023-12-20T01:11:41;11.38;;;5.28;;
30707;SDS011;17458;48.958;8.284;2023-12-20T01:14:25;6.28;;;5.65;;
30707;SDS011;17458;48.958;8.284;2023-12-20T01:17:09;5.53;;;4.90;;
30707;SDS011;17458;48.958;8.284;2023-12-20T01:19:53;6.40;;;4.78;;
30707;SDS011;17458;48.958;8.284;2023-12-20T01:22:37;7.30;;;4.90;;
30707;SDS011;17458;48.958;8.284;2023-12-20T01:25:21;14.77;;;5.20;;
30707;SDS011;17458;48.958;8.284;2023-12-20T01:28:05;9.27;;;4.90;;
30707;SDS011;17458;48.958;8.284;2023-12-20T01:30:49;5.50;;;4.88;;
30707;SDS011;17458;48.958;8.284;2023-12-20T01:33:33;5.68;;;5.00;;
30707;SDS011;17458;48.958;8.284;2023-12-20T01:36:17;7.68;;;5.90;;
30707;SDS011;17458;48.958;8.284;2023-12-20T01:39:01;6.68;;;5.50;;
30707;SDS011;17458;48.958;8.284;2023-12-20T01:41:45;4.70;;;4.13;;
30707;SDS011;17458;48.958;8.284;2023-12-20T01:44:29;5.70;;;4.88;;
30707;SDS011;17458;48.958;8.284;2023-12-20T01:47:13;6.70;;;4.30;;
30707;SDS011;17458;48.958;8.284;2023-12-20T01:49:57;5.50;;;4.60;;
30707;SDS011;17458;48.958;8.284;2023-12-20T01:52:42;8.13;;;5.70;;
30707;SDS011;17458;48.958;8.284;2023-12-20T01:55:27;7.85;;;5.45;;
30707;SDS011;17458;48.958;8.284;2023-12-20T01:58:15;8.77;;;4.28;;
30707;SDS011;17458;48.958;8.284;2023-12-20T02:01:00;6.05;;;4.68;;
30707;SDS011;17458;48.958;8.284;2023-12-20T02:03:45;8.13;;;5.70;;
30707;SDS011;17458;48.958;8.284;2023-12-20T02:06:30;6.82;;;5.25;;
30707;SDS011;17458;48.958;8.284;2023-12-20T02:09:17;5.50;;;4.45;;
30707;SDS011;17458;48.958;8.284;2023-12-20T02:12:02;7.78;;;5.18;;
30707;SDS011;17458;48.958;8.284;2023-12-20T02:14:46;6.13;;;4.80;;
30707;SDS011;17458;48.958;8.284;2023-12-20T02:17:31;6.30;;;4.80;;
30707;SDS011;17458;48.958;8.284;2023-12-20T02:20:15;6.03;;;5.07;;
30707;SDS011;17458;48.958;8.284;2023-12-20T02:23:00;5.60;;;4.78;;
30707;SDS011;17458;48.958;8.284;2023-12-20T02:25:44;11.38;;;5.30;;
30707;SDS011;17458;48.958;8.284;2023-12-20T02:28:28;5.82;;;5.00;;
30707;SDS011;17458;48.958;8.284;2023-12-20T02:31:13;6.15;;;4.65;;
30707;SDS011;17458;48.958;8.284;2023-12-20T02:33:56;6.45;;;5.72;;
30707;SDS011;17458;48.958;8.284;2023-12-20T02:36:40;5.53;;;4.47;;
30707;SDS011;17458;48.958;8.284;2023-12-20T02:39:24;6.28;;;5.53;;
30707;SDS011;17458;48.958;8.284;2023-12-20T02:42:09;5.38;;;4.38;;
30707;SDS011;17458;48.958;8.284;2023-12-20T02:44:53;6.53;;;4.95;;
30707;SDS011;17458;48.958;8.284;2023-12-20T02:47:37;10.43;;;5.15;;
30707;SDS011;17458;48.958;8.284;2023-12-20T02:50:21;6.60;;;5.22;;
30707;SDS011;17458;48.958;8.284;2023-12-20T02:53:05;5.30;;;4.50;;
30707;SDS011;17458;48.958;8.284;2023-12-20T02:55:49;8.07;;;4.85;;
30707;SDS011;17458;48.958;8.284;2023-12-20T02:58:33;5.43;;;4.82;;
30707;SDS011;17458;48.958;8.284;2023-12-20T03:01:17;6.47;;;5.30;;
30707;SDS011;17458;48.958;8.284;2023-12-20T03:04:01;7.63;;;5.65;;
30707;SDS011;17458;48.958;8.284;2023-12-20T03:06:45;6.40;;;5.35;;
30707;SDS011;17458;48.958;8.284;2023-12-20T03:09:29;8.85;;;4.85;;
30707;SDS011;17458;48.958;8.284;2023-12-20T03:12:13;5.05;;;4.50;;
30707;SDS011;17458;48.958;8.284;2023-12-20T03:14:57;7.10;;;5.25;;
30707;SDS011;17458;48.958;8.284;2023-12-20T03:17:41;6.18;;;5.35;;
30707;SDS011;17458;48.958;8.284;2023-12-20T03:20:24;4.70;;;4.20;;
30707;SDS011;17458;48.958;8.284;2023-12-20T03:23:09;6.22;;;4.55;;
30707;SDS011;17458;48.958;8.284;2023-12-20T03:25:53;7.45;;;5.35;;
30707;SDS011;17458;48.958;8.284;2023-12-20T03:28:37;5.63;;;4.78;;
30707;SDS011;17458;48.958;8.284;2023-12-20T03:31:21;6.18;;;4.43;;
30707;SDS011;17458;48.958;8.284;2023-12-20T03:34:05;9.07;;;4.95;;
30707;SDS011;17458;48.958;8.284;2023-12-20T03:36:49;6.18;;;4.32;;
30707;SDS011;17458;48.958;8.284;2023-12-20T03:39:33;6.72;;;5.20;;
30707;SDS011;17458;48.958;8.284;2023-12-20T03:42:17;5.18;;;4.10;;
30707;SDS011;17458;48.958;8.284;2023-12-20T03:45:01;4.75;;;3.65;;
30707;SDS011;17458;48.958;8.284;2023-12-20T03:47:45;4.53;;;4.07;;
30707;SDS011;17458;48.958;8.284;2023-12-20T03:50:29;7.15;;;4.15;;
30707;SDS011;17458;48.958;8.284;2023-12-20T03:53:13;4.50;;;4.10;;
30707;SDS011;17458;48.958;8.284;2023-12-20T03:55:57;5.45;;;4.88;;
30707;SDS011;17458;48.958;8.284;2023-12-20T03:58:41;6.72;;;4.53;;
30707;SDS011;17458;48.958;8.284;2023-12-20T04:01:25;6.30;;;5.03;;
30707;SDS011;17458;48.958;8.284;2023-12-20T04:04:09;4.75;;;4.28;;
30707;SDS011;17458;48.958;8.284;2023-12-20T04:06:54;6.18;;;4.43;;
30707;SDS011;17458;48.958;8.284;2023-12-20T04:09:38;5.60;;;3.85;;
30707;SDS011;17458;48.958;8.284;2023-12-20T04:12:22;4.60;;;4.20;;
30707;SDS011;17458;48.958;8.284;2023-12-20T04:15:06;7.68;;;5.15;;
30707;SDS011;17458;48.958;8.284;2023-12-20T04:17:52;4.82;;;3.97;;
30707;SDS011;17458;48.958;8.284;2023-12-20T04:20:36;6.75;;;3.75;;
30707;SDS011;17458;48.958;8.284;2023-12-20T04:23:20;4.57;;;3.35;;
30707;SDS011;17458;48.958;8.284;2023-12-20T04:26:04;3.25;;;2.95;;
30707;SDS011;17458;48.958;8.284;2023-12-20T04:28:48;3.88;;;3.58;;
30707;SDS011;17458;48.958;8.284;2023-12-20T04:31:32;4.15;;;3.60;;
30707;SDS011;17458;48.958;8.284;2023-12-20T04:34:16;4.13;;;3.80;;
30707;SDS011;17458;48.958;8.284;2023-12-20T04:37:00;7.10;;;4.20;;
30707;SDS011;17458;48.958;8.284;2023-12-20T04:39:45;5.03;;;4.13;;
30707;SDS011;17458;48.958;8.284;2023-12-20T04:42:29;4.88;;;4.07;;
30707;SDS011;17458;48.958;8.284;2023-12-20T04:45:13;5.80;;;4.35;;
30707;SDS011;17458;48.958;8.284;2023-12-20T04:47:59;4.10;;;3.72;;
30707;SDS011;17458;48.958;8.284;2023-12-20T04:50:43;6.63;;;4.72;;
30707;SDS011;17458;48.958;8.284;2023-12-20T04:53:27;4.00;;;3.60;;
30707;SDS011;17458;48.958;8.284;2023-12-20T04:56:11;3.78;;;3.40;;
30707;SDS011;17458;48.958;8.284;2023-12-20T04:58:55;4.13;;;3.65;;
30707;SDS011;17458;48.958;8.284;2023-12-20T05:01:39;4.55;;;4.13;;
30707;SDS011;17458;48.958;8.284;2023-12-20T05:04:23;4.45;;;3.65;;
30707;SDS011;17458;48.958;8.284;2023-12-20T05:07:07;7.75;;;3.42;;
30707;SDS011;17458;48.958;8.284;2023-12-20T05:09:51;4.53;;;3.63;;
30707;SDS011;17458;48.958;8.284;2023-12-20T05:12:35;7.03;;;3.63;;
30707;SDS011;17458;48.958;8.284;2023-12-20T05:15:19;4.65;;;4.15;;
30707;SDS011;17458;48.958;8.284;2023-12-20T05:18:03;4.57;;;3.92;;
30707;SDS011;17458;48.958;8.284;2023-12-20T05:20:47;4.90;;;4.22;;
30707;SDS011;17458;48.958;8.284;2023-12-20T05:23:31;3.88;;;3.58;;
30707;SDS011;17458;48.958;8.284;2023-12-20T05:26:15;6.38;;;4.15;;
30707;SDS011;17458;48.958;8.284;2023-12-20T05:28:59;3.80;;;3.50;;
30707;SDS011;17458;48.958;8.284;2023-12-20T05:31:43;4.40;;;3.90;;
30707;SDS011;17458;48.958;8.284;2023-12-20T05:34:27;4.80;;;4.25;;
30707;SDS011;17458;48.958;8.284;2023-12-20T05:37:12;11.75;;;4.38;;
30707;SDS011;17458;48.958;8.284;2023-12-20T05:39:56;7.70;;;4.45;;
30707;SDS011;17458;48.958;8.284;2023-12-20T05:42:40;7.70;;;4.25;;
30707;SDS011;17458;48.958;8.284;2023-12-20T05:45:24;4.68;;;3.80;;
30707;SDS011;17458;48.958;8.284;2023-12-20T05:48:08;3.97;;;3.55;;
30707;SDS011;17458;48.958;8.284;2023-12-20T05:50:51;7.40;;;4.38;;
30707;SDS011;17458;48.958;8.284;2023-12-20T05:53:36;5.47;;;3.88;;
30707;SDS011;17458;48.958;8.284;2023-12-20T05:56:19;4.50;;;4.10;;
30707;SDS011;17458;48.958;8.284;2023-12-20T05:59:03;4.30;;;3.90;;
30707;SDS011;17458;48.958;8.284;2023-12-20T06:01:47;3.78;;;3.35;;
30707;SDS011;17458;48.958;8.284;2023-12-20T06:04:31;3.55;;;3.25;;
30707;SDS011;17458;48.958;8.284;2023-12-20T06:07:16;5.63;;;4.50;;
30707;SDS011;17458;48.958;8.284;2023-12-20T06:10:00;6.25;;;4.60;;
30707;SDS011;17458;48.958;8.284;2023-12-20T06:12:44;3.65;;;3.33;;
30707;SDS011;17458;48.958;8.284;2023-12-20T06:15:31;4.68;;;3.88;;
30707;SDS011;17458;48.958;8.284;2023-12-20T06:18:14;5.40;;;3.50;;
30707;SDS011;17458;48.958;8.284;2023-12-20T06:20:58;4.00;;;3.40;;
30707;SDS011;17458;48.958;8.284;2023-12-20T06:23:42;3.85;;;2.97;;
30707;SDS011;17458;48.958;8.284;2023-12-20T06:26:26;3.78;;;3.05;;
30707;SDS011;17458;48.958;8.284;2023-12-20T06:29:10;3.75;;;3.42;;
30707;SDS011;17458;48.958;8.284;2023-12-20T06:31:54;3.65;;;3.28;;
30707;SDS011;17458;48.958;8.284;2023-12-20T06:34:38;4.18;;;3.17;;
30707;SDS011;17458;48.958;8.284;2023-12-20T06:37:22;3.35;;;3.05;;
30707;SDS011;17458;48.958;8.284;2023-12-20T06:40:06;4.03;;;3.33;;
30707;SDS011;17458;48.958;8.284;2023-12-20T06:42:51;10.82;;;4.90;;
30707;SDS011;17458;48.958;8.284;2023-12-20T06:45:35;4.68;;;3.33;;
30707;SDS011;17458;48.958;8.284;2023-12-20T06:48:19;4.18;;;2.10;;
30707;SDS011;17458;48.958;8.284;2023-12-20T06:51:05;2.28;;;2.08;;
30707;SDS011;17458;48.958;8.284;2023-12-20T06:53:49;4.78;;;2.05;;
30707;SDS011;17458;48.958;8.284;2023-12-20T06:56:33;1.85;;;1.75;;
30707;SDS011;17458;48.958;8.284;2023-12-20T06:59:17;3.20;;;1.85;;
30707;SDS011;17458;48.958;8.284;2023-12-20T07:02:01;1.98;;;1.73;;
30707;SDS011;17458;48.958;8.284;2023-12-20T07:04:46;2.08;;;1.98;;
30707;SDS011;17458;48.958;8.284;2023-12-20T07:07:30;2.83;;;2.55;;
30707;SDS011;17458;48.958;8.284;2023-12-20T07:10:13;2.92;;;2.22;;
30707;SDS011;17458;48.958;8.284;2023-12-20T07:12:58;2.78;;;2.58;;
30707;SDS011;17458;48.958;8.284;2023-12-20T07:15:42;4.72;;;2.88;;
30707;SDS011;17458;48.958;8.284;2023-12-20T07:18:26;3.95;;;2.90;;
30707;SDS011;17458;48.958;8.284;2023-12-20T07:21:10;3.92;;;3.35;;
30707;SDS011;17458;48.958;8.284;2023-12-20T07:23:54;3.65;;;3.35;;
30707;SDS011;17458;48.958;8.284;2023-12-20T07:26:38;5.90;;;4.43;;
30707;SDS011;17458;48.958;8.284;2023-12-20T07:29:23;4.10;;;3.42;;
30707;SDS011;17458;48.958;8.284;2023-12-20T07:32:07;6.13;;;3.70;;
30707;SDS011;17458;48.958;8.284;2023-12-20T07:34:52;4.20;;;3.80;;
30707;SDS011;17458;48.958;8.284;2023-12-20T07:37:37;3.72;;;3.42;;
30707;SDS011;17458;48.958;8.284;2023-12-20T07:40:21;3.55;;;3.25;;
30707;SDS011;17458;48.958;8.284;2023-12-20T07:43:05;7.40;;;3.40;;
30707;SDS011;17458;48.958;8.284;2023-12-20T07:45:49;4.47;;;3.10;;
30707;SDS011;17458;48.958;8.284;2023-12-20T07:48:34;3.20;;;2.90;;
30707;SDS011;17458;48.958;8.284;2023-12-20T07:51:19;3.85;;;3.42;;
30707;SDS011;17458;48.958;8.284;2023-12-20T07:54:04;3.40;;;3.10;;
30707;SDS011;17458;48.958;8.284;2023-12-20T07:56:48;6.13;;;3.03;;
30707;SDS011;17458;48.958;8.284;2023-12-20T07:59:33;3.78;;;2.83;;
30707;SDS011;17458;48.958;8.284;2023-12-20T08:02:16;4.70;;;2.95;;
30707;SDS011;17458;48.958;8.284;2023-12-20T08:05:00;3.05;;;2.40;;
30707;SDS011;17458;48.958;8.284;2023-12-20T08:07:44;2.67;;;2.47;;
30707;SDS011;17458;48.958;8.284;2023-12-20T08:10:28;3.95;;;2.80;;
30707;SDS011;17458;48.958;8.284;2023-12-20T08:13:14;4.63;;;2.88;;
30707;SDS011;17458;48.958;8.284;2023-12-20T08:15:57;3.42;;;3.13;;
30707;SDS011;17458;48.958;8.284;2023-12-20T08:18:42;3.03;;;2.70;;
30707;SDS011;17458;48.958;8.284;2023-12-20T08:21:25;2.78;;;2.58;;
30707;SDS011;17458;48.958;8.284;2023-12-20T08:24:09;3.17;;;2.88;;
30707;SDS011;17458;48.958;8.284;2023-12-20T08:26:53;5.55;;;3.88;;
30707;SDS011;17458;48.958;8.284;2023-12-20T08:29:37;4.00;;;3.53;;
30707;SDS011;17458;48.958;8.284;2023-12-20T08:32:21;4.28;;;3.47;;
30707;SDS011;17458;48.958;8.284;2023-12-20T08:35:05;3.42;;;3.13;;
30707;SDS011;17458;48.958;8.284;2023-12-20T08:37:49;6.10;;;3.40;;
30707;SDS011;17458;48.958;8.284;2023-12-20T08:40:34;3.17;;;2.88;;
30707;SDS011;17458;48.958;8.284;2023-12-20T08:43:17;4.80;;;3.35;;
30707;SDS011;17458;48.958;8.284;2023-12-20T08:46:02;3.05;;;2.75;;
30707;SDS011;17458;48.958;8.284;2023-12-20T08:48:46;3.72;;;3.13;;
30707;SDS011;17458;48.958;8.284;2023-12-20T08:51:30;3.28;;;2.97;;
30707;SDS011;17458;48.958;8.284;2023-12-20T08:54:14;2.90;;;2.67;;
30707;SDS011;17458;48.958;8.284;2023-12-20T08:57:00;5.68;;;3.50;;
30707;SDS011;17458;48.958;8.284;2023-12-20T08:59:44;3.47;;;3.17;;
30707;SDS011;17458;48.958;8.284;2023-12-20T09:02:28;5.72;;;3.63;;
30707;SDS011;17458;48.958;8.284;2023-12-20T09:05:12;7.57;;;3.08;;
30707;SDS011;17458;48.958;8.284;2023-12-20T09:07:57;4.40;;;3.15;;
30707;SDS011;17458;48.958;8.284;2023-12-20T09:10:41;3.88;;;3.38;;
30707;SDS011;17458;48.958;8.284;2023-12-20T09:13:25;6.97;;;3.42;;
30707;SDS011;17458;48.958;8.284;2023-12-20T09:16:12;5.07;;;4.07;;
30707;SDS011;17458;48.958;8.284;2023-12-20T09:18:57;4.38;;;2.70;;
30707;SDS011;17458;48.958;8.284;2023-12-20T09:21:41;4.50;;;2.65;;
30707;SDS011;17458;48.958;8.284;2023-12-20T09:24:25;4.03;;;2.90;;
30707;SDS011;17458;48.958;8.284;2023-12-20T09:27:09;3.38;;;2.97;;
30707;SDS011;17458;48.958;8.284;2023-12-20T09:29:53;3.85;;;2.58;;
30707;SDS011;17458;48.958;8.284;2023-12-20T09:32:37;3.83;;;3.35;;
30707;SDS011;17458;48.958;8.284;2023-12-20T09:35:21;4.88;;;3.30;;
30707;SDS011;17458;48.958;8.284;2023-12-20T09:38:06;8.13;;;2.95;;
30707;SDS011;17458;48.958;8.284;2023-12-20T09:40:50;4.35;;;2.80;;
30707;SDS011;17458;48.958;8.284;2023-12-20T09:43:35;4.47;;;3.28;;
30707;SDS011;17458;48.958;8.284;2023-12-20T09:46:21;4.85;;;3.63;;
30707;SDS011;17458;48.958;8.284;2023-12-20T09:49:08;4.80;;;4.05;;
30707;SDS011;17458;48.958;8.284;2023-12-20T09:51:53;9.00;;;4.55;;
30707;SDS011;17458;48.958;8.284;2023-12-20T09:54:37;8.80;;;4.00;;
30707;SDS011;17458;48.958;8.284;2023-12-20T09:57:21;4.28;;;3.13;;
30707;SDS011;17458;48.958;8.284;2023-12-20T10:00:05;10.15;;;3.22;;
30707;SDS011;17458;48.958;8.284;2023-12-20T10:02:57;7.07;;;3.65;;
30707;SDS011;17458;48.958;8.284;2023-12-20T10:05:41;3.58;;;2.75;;
30707;SDS011;17458;48.958;8.284;2023-12-20T10:08:28;2.38;;;2.17;;
30707;SDS011;17458;48.958;8.284;2023-12-20T10:11:13;8.55;;;2.22;;
30707;SDS011;17458;48.958;8.284;2023-12-20T10:13:58;6.10;;;2.90;;
30707;SDS011;17458;48.958;8.284;2023-12-20T10:16:46;5.53;;;2.80;;
30707;SDS011;17458;48.958;8.284;2023-12-20T10:19:30;10.00;;;2.63;;
30707;SDS011;17458;48.958;8.284;2023-12-20T10:22:14;7.88;;;3.17;;
30707;SDS011;17458;48.958;8.284;2023-12-20T10:24:59;4.45;;;2.67;;
30707;SDS011;17458;48.958;8.284;2023-12-20T10:27:43;9.95;;;3.03;;
30707;SDS011;17458;48.958;8.284;2023-12-20T10:30:27;7.25;;;3.08;;
30707;SDS011;17458;48.958;8.284;2023-12-20T10:33:11;6.15;;;3.22;;
30707;SDS011;17458;48.958;8.284;2023-12-20T10:35:55;5.82;;;3.13;;
30707;SDS011;17458;48.958;8.284;2023-12-20T10:38:40;6.00;;;2.60;;
30707;SDS011;17458;48.958;8.284;2023-12-20T10:41:26;3.13;;;2.42;;
30707;SDS011;17458;48.958;8.284;2023-12-20T10:44:15;3.95;;;2.75;;
30707;SDS011;17458;48.958;8.284;2023-12-20T10:47:00;4.63;;;3.05;;
30707;SDS011;17458;48.958;8.284;2023-12-20T10:49:44;10.68;;;3.00;;
30707;SDS011;17458;48.958;8.284;2023-12-20T10:52:29;5.72;;;3.75;;
30707;SDS011;17458;48.958;8.284;2023-12-20T10:55:16;6.63;;;3.05;;
30707;SDS011;17458;48.958;8.284;2023-12-20T10:58:01;7.65;;;3.10;;
30707;SDS011;17458;48.958;8.284;2023-12-20T11:00:50;12.45;;;3.08;;
30707;SDS011;17458;48.958;8.284;2023-12-20T11:03:42;3.80;;;3.30;;
30707;SDS011;17458;48.958;8.284;2023-12-20T11:06:36;7.38;;;2.63;;
30707;SDS011;17458;48.958;8.284;2023-12-20T11:09:31;8.55;;;2.58;;
30707;SDS011;17458;48.958;8.284;2023-12-20T11:12:30;15.02;;;4.05;;
30707;SDS011;17458;48.958;8.284;2023-12-20T11:15:19;8.57;;;3.10;;
30707;SDS011;17458;48.958;8.284;2023-12-20T11:18:04;8.50;;;3.15;;
30707;SDS011;17458;48.958;8.284;2023-12-20T11:20:50;4.65;;;3.35;;
30707;SDS011;17458;48.958;8.284;2023-12-20T11:23:34;3.67;;;2.85;;
30707;SDS011;17458;48.958;8.284;2023-12-20T11:26:22;3.38;;;2.85;;
30707;SDS011;17458;48.958;8.284;2023-12-20T11:37:55;11.20;;;2.88;;
30707;SDS011;17458;48.958;8.284;2023-12-20T11:40:42;3.58;;;3.17;;
30707;SDS011;17458;48.958;8.284;2023-12-20T11:43:36;4.30;;;2.92;;
30707;SDS011;17458;48.958;8.284;2023-12-20T11:46:22;9.77;;;3.15;;
30707;SDS011;17458;48.958;8.284;2023-12-20T11:49:06;9.45;;;2.67;;
30707;SDS011;17458;48.958;8.284;2023-12-20T11:51:49;3.42;;;2.95;;
30707;SDS011;17458;48.958;8.284;2023-12-20T11:54:34;15.43;;;3.10;;
30707;SDS011;17458;48.958;8.284;2023-12-20T11:57:18;6.35;;;3.22;;
30707;SDS011;17458;48.958;8.284;2023-12-20T12:00:03;17.70;;;4.07;;
30707;SDS011;17458;48.958;8.284;2023-12-20T12:02:59;5.53;;;3.33;;
30707;SDS011;17458;48.958;8.284;2023-12-20T12:05:43;12.90;;;3.00;;
30707;SDS011;17458;48.958;8.284;2023-12-20T12:08:27;3.03;;;2.72;;
30707;SDS011;17458;48.958;8.284;2023-12-20T12:11:11;8.73;;;3.72;;
30707;SDS011;17458;48.958;8.284;2023-12-20T12:13:55;4.40;;;2.67;;
30707;SDS011;17458;48.958;8.284;2023-12-20T12:16:41;3.15;;;2.60;;
30707;SDS011;17458;48.958;8.284;2023-12-20T12:19:27;6.15;;;3.33;;
30707;SDS011;17458;48.958;8.284;2023-12-20T12:22:12;10.75;;;3.47;;
30707;SDS011;17458;48.958;8.284;2023-12-20T12:24:58;8.02;;;2.97;;
30707;SDS011;17458;48.958;8.284;2023-12-20T12:27:52;7.15;;;2.20;;
30707;SDS011;17458;48.958;8.284;2023-12-20T12:30:36;5.22;;;2.65;;
30707;SDS011;17458;48.958;8.284;2023-12-20T12:33:20;5.85;;;3.20;;
30707;SDS011;17458;48.958;8.284;2023-12-20T12:36:04;7.68;;;3.45;;
30707;SDS011;17458;48.958;8.284;2023-12-20T12:38:50;6.68;;;3.25;;
30707;SDS011;17458;48.958;8.284;2023-12-20T12:41:34;6.47;;;3.35;;
30707;SDS011;17458;48.958;8.284;2023-12-20T12:44:19;7.15;;;2.45;;
30707;SDS011;17458;48.958;8.284;2023-12-20T12:47:04;7.05;;;3.03;;
30707;SDS011;17458;48.958;8.284;2023-12-20T12:49:49;17.50;;;3.28;;
30707;SDS011;17458;48.958;8.284;2023-12-20T12:52:36;7.28;;;2.75;;
30707;SDS011;17458;48.958;8.284;2023-12-20T12:55:21;11.38;;;3.00;;
30707;SDS011;17458;48.958;8.284;2023-12-20T12:58:05;6.50;;;2.72;;
30707;SDS011;17458;48.958;8.284;2023-12-20T13:00:49;6.93;;;3.30;;
30707;SDS011;17458;48.958;8.284;2023-12-20T13:03:33;4.15;;;2.85;;
30707;SDS011;17458;48.958;8.284;2023-12-20T13:06:19;7.95;;;2.88;;
30707;SDS011;17458;48.958;8.284;2023-12-20T13:09:03;5.40;;;2.40;;
30707;SDS011;17458;48.958;8.284;2023-12-20T13:11:48;4.75;;;2.80;;
30707;SDS011;17458;48.958;8.284;2023-12-20T13:14:33;3.13;;;2.83;;
30707;SDS011;17458;48.958;8.284;2023-12-20T13:17:18;8.73;;;2.30;;
30707;SDS011;17458;48.958;8.284;2023-12-20T13:20:03;8.68;;;2.67;;
30707;SDS011;17458;48.958;8.284;2023-12-20T13:22:47;18.02;;;3.65;;
30707;SDS011;17458;48.958;8.284;2023-12-20T13:25:32;6.30;;;2.58;;
30707;SDS011;17458;48.958;8.284;2023-12-20T13:28:17;7.78;;;3.20;;
30707;SDS011;17458;48.958;8.284;2023-12-20T13:31:01;9.75;;;2.95;;
30707;SDS011;17458;48.958;8.284;2023-12-20T13:33:45;5.70;;;2.42;;
30707;SDS011;17458;48.958;8.284;2023-12-20T13:36:30;10.68;;;2.90;;
30707;SDS011;17458;48.958;8.284;2023-12-20T13:39:13;3.60;;;2.40;;
30707;SDS011;17458;48.958;8.284;2023-12-20T13:41:58;10.77;;;3.00;;
30707;SDS011;17458;48.958;8.284;2023-12-20T13:44:42;4.00;;;2.50;;
30707;SDS011;17458;48.958;8.284;2023-12-20T13:47:26;5.78;;;3.13;;
30707;SDS011;17458;48.958;8.284;2023-12-20T13:50:09;11.98;;;3.35;;
30707;SDS011;17458;48.958;8.284;2023-12-20T13:52:53;9.93;;;2.90;;
30707;SDS011;17458;48.958;8.284;2023-12-20T13:55:37;2.78;;;2.58;;
30707;SDS011;17458;48.958;8.284;2023-12-20T13:58:24;19.60;;;2.92;;
30707;SDS011;17458;48.958;8.284;2023-12-20T14:01:09;10.35;;;3.78;;
30707;SDS011;17458;48.958;8.284;2023-12-20T14:03:54;10.93;;;2.95;;
30707;SDS011;17458;48.958;8.284;2023-12-20T14:06:38;6.07;;;2.85;;
30707;SDS011;17458;48.958;8.284;2023-12-20T14:09:22;18.30;;;3.00;;
30707;SDS011;17458;48.958;8.284;2023-12-20T14:12:07;15.45;;;3.28;;
30707;SDS011;17458;48.958;8.284;2023-12-20T14:14:52;11.63;;;2.72;;
30707;SDS011;17458;48.958;8.284;2023-12-20T14:17:39;5.70;;;2.47;;
30707;SDS011;17458;48.958;8.284;2023-12-20T14:20:25;6.85;;;2.53;;
30707;SDS011;17458;48.958;8.284;2023-12-20T14:23:10;10.65;;;3.42;;
30707;SDS011;17458;48.958;8.284;2023-12-20T14:25:54;7.82;;;2.25;;
30707;SDS011;17458;48.958;8.284;2023-12-20T14:28:43;5.80;;;2.70;;
30707;SDS011;17458;48.958;8.284;2023-12-20T14:31:27;3.25;;;2.60;;
30707;SDS011;17458;48.958;8.284;2023-12-20T14:34:11;19.10;;;3.80;;
30707;SDS011;17458;48.958;8.284;2023-12-20T14:36:55;9.57;;;3.15;;
30707;SDS011;17458;48.958;8.284;2023-12-20T14:39:39;10.18;;;3.22;;
30707;SDS011;17458;48.958;8.284;2023-12-20T14:42:25;7.57;;;3.10;;
30707;SDS011;17458;48.958;8.284;2023-12-20T14:45:09;9.68;;;2.40;;
30707;SDS011;17458;48.958;8.284;2023-12-20T14:47:53;4.82;;;2.47;;
30707;SDS011;17458;48.958;8.284;2023-12-20T14:50:37;3.58;;;2.33;;
30707;SDS011;17458;48.958;8.284;2023-12-20T14:53:21;3.33;;;3.00;;
30707;SDS011;17458;48.958;8.284;2023-12-20T14:56:05;14.55;;;3.13;;
30707;SDS011;17458;48.958;8.284;2023-12-20T14:58:50;8.35;;;3.25;;
30707;SDS011;17458;48.958;8.284;2023-12-20T15:01:34;11.80;;;3.13;;
30707;SDS011;17458;48.958;8.284;2023-12-20T15:04:18;10.68;;;3.08;;
30707;SDS011;17458;48.958;8.284;2023-12-20T15:07:09;5.97;;;2.97;;
30707;SDS011;17458;48.958;8.284;2023-12-20T15:09:53;14.07;;;3.38;;
30707;SDS011;17458;48.958;8.284;2023-12-20T15:12:37;7.18;;;2.78;;
30707;SDS011;17458;48.958;8.284;2023-12-20T15:15:21;9.38;;;3.22;;
30707;SDS011;17458;48.958;8.284;2023-12-20T15:18:06;13.35;;;2.95;;
30707;SDS011;17458;48.958;8.284;2023-12-20T15:20:50;9.07;;;3.03;;
30707;SDS011;17458;48.958;8.284;2023-12-20T15:23:34;11.57;;;3.20;;
30707;SDS011;17458;48.958;8.284;2023-12-20T15:26:19;6.53;;;2.17;;
30707;SDS011;17458;48.958;8.284;2023-12-20T15:29:03;8.07;;;2.78;;
30707;SDS011;17458;48.958;8.284;2023-12-20T15:31:48;13.40;;;3.75;;
30707;SDS011;17458;48.958;8.284;2023-12-20T15:34:32;2.70;;;2.03;;
30707;SDS011;17458;48.958;8.284;2023-12-20T15:37:16;9.15;;;2.75;;
30707;SDS011;17458;48.958;8.284;2023-12-20T15:40:00;18.48;;;3.15;;
30707;SDS011;17458;48.958;8.284;2023-12-20T15:42:44;5.80;;;2.58;;
30707;SDS011;17458;48.958;8.284;2023-12-20T15:45:28;12.68;;;3.13;;
30707;SDS011;17458;48.958;8.284;2023-12-20T15:48:12;4.43;;;3.25;;
30707;SDS011;17458;48.958;8.284;2023-12-20T15:51:05;4.55;;;2.67;;
30707;SDS011;17458;48.958;8.284;2023-12-20T15:53:50;3.70;;;2.25;;
30707;SDS011;17458;48.958;8.284;2023-12-20T15:56:34;10.55;;;2.78;;
30707;SDS011;17458;48.958;8.284;2023-12-20T15:59:18;6.78;;;2.83;;
30707;SDS011;17458;48.958;8.284;2023-12-20T16:02:03;4.22;;;2.53;;
30707;SDS011;17458;48.958;8.284;2023-12-20T16:04:47;4.05;;;3.03;;
30707;SDS011;17458;48.958;8.284;2023-12-20T16:07:31;10.32;;;3.80;;
30707;SDS011;17458;48.958;8.284;2023-12-20T16:10:15;9.15;;;3.47;;
30707;SDS011;17458;48.958;8.284;2023-12-20T16:12:59;10.23;;;3.40;;
30707;SDS011;17458;48.958;8.284;2023-12-20T16:15:43;6.85;;;2.88;;
30707;SDS011;17458;48.958;8.284;2023-12-20T16:18:27;9.95;;;3.33;;
30707;SDS011;17458;48.958;8.284;2023-12-20T16:21:12;9.73;;;3.95;;
30707;SDS011;17458;48.958;8.284;2023-12-20T16:23:56;7.55;;;3.75;;
30707;SDS011;17458;48.958;8.284;2023-12-20T16:26:40;7.47;;;3.10;;
30707;SDS011;17458;48.958;8.284;2023-12-20T16:29:25;2.83;;;2.38;;
30707;SDS011;17458;48.958;8.284;2023-12-20T16:32:08;7.25;;;2.55;;
30707;SDS011;17458;48.958;8.284;2023-12-20T16:34:52;10.60;;;2.72;;
30707;SDS011;17458;48.958;8.284;2023-12-20T16:37:37;12.77;;;2.73;;